Henderson, CO

11:29 PM MDT on September 14, 2014 (GMT -0600)
Erie Municipal Airport | Change Station
CLOSE
Current Station
Airport
Location: Erie,
Elevation: 5128 ft
Nearby Weather Stations

Elev 5128 ft 40.01 °N, 105.05 °W | Updated 14 minutes ago

Partly Cloudy
Partly Cloudy
64 °F
Feels Like 64 °F
N
10
Wind Variable Wind from NNE
Gusts 18 mph

Today
High -- | Low -- °F
--% Chance of Precip.
Yesterday
High -- | Low -- °F
Precip. -- in
6:39 AM 7:09 PM
Waning Gibbous, 59% visible
Pressure 30.14 in
Visibility 10.0 miles
Clouds Clear
Dew Point 45 °F
Humidity 49%
Rainfall 0.00 in
Snow Depth 0 in , 13 in , 0 in
UV 0 out of 12
Pollen 7.60 out of 12
Ozone Good
PM2.5 Good
Flu Activity Not available.
METAR KEIK 150515Z AUTO 02009G16KT 10SM CLR 18/07 A3014 RMK AO2 T01790070

More Conditions Fewer Conditions

Pressure 30.14 in
Visibility 10.0 miles
Clouds Clear
Dew Point 45 °F
Humidity 49%
Rainfall 0.00 in
Snow Depth 0 in , 13 in , 0 in
UV 0 out of 12
Pollen 7.60 out of 12
Ozone Good
PM2.5 Good
Flu Activity Not available.
METAR KEIK 150515Z AUTO 02009G16KT 10SM CLR 18/07 A3014 RMK AO2 T01790070

More Conditions Fewer Conditions

10-Day Weather Forecast

Almanac

Astronomy

Sep. 14, 2014 Rise Set
Actual Time 6:39 AM MDT 7:09 PM MDT
Civil Twilight 6:12 AM MDT 7:36 PM MDT
Nautical Twilight 5:40 AM MDT 8:08 PM MDT
Astronomical Twilight 5:07 AM MDT 8:41 PM MDT
Moon 11:04 PM MDT (9/14) 12:47 PM MDT (9/14)
Length of Visible Light 13h 24m
Length of Day
12h 30m
Tomorrow will be 2m 35s shorter.
Waning Gibbous, 59% of the Moon is Illuminated
Sep 15
Waning Gibbous
Sep 15
Last Quarter
Sep 24
New
Oct 1
First Quarter
Oct 8
Full

Yesterday's Extremes

State Highs State Lows

Community

WunderPhotos

Upload Photos

1,753,414 photos uploaded!

Nearby

Air Quality

  Air Quality AQ Index Pollutant
Yesterday Good
OZONE
Yesterday Good
PM10
Current Good
OZONE
Current Good
PM2.5
Sunday Good
OZONE
Sunday Good
PM2.5
Monday Good
OZONE
Monday Good
PM2.5

Snow Depth

Station Depth Elevation
Park Cone 0 in 9600 ft
Mccoy Park 13 in 9480 ft
Trapper Lake 0 in 9700 ft
Whiskey Creek 0 in 10220 ft
Never Summer 77 in 10280 ft

Earthquake Activity

City Distance Mag. Time & Date
No recent earthquake activity has been reported nearby.
Minimum magnitude displayed is 2.5.

Coastal Water Temperatures

Place Temperature
No Stations Reporting

Nearby Weather Stations